Latest Weather Observations for Leonora Airport

IDW60801

Issued at 8:43 am WST Friday 15 November 2019 (issued every 10 minutes, with the page automatically refreshed every 10 minutes)

About weather observations | Map of weather stations | Latest weather observations for WA | Other Formats
Station Details ID: 012241 Name: LEONORA AERO Lat: -28.88 Lon: 121.32 Height: 370.0 m
Data from the previous 72 hours. | See also: Recent months at Leonora Airport
Date/Time
WST
Temp
°C
App
Temp
°C
Dew
Point
°C
Rel
Hum
%
Delta-T
°C
Wind Press
QNH
hPa
Press
MSL
hPa
Rain since
9am
mm
Dir  Spd
km/h
Gust
km/h
Spd
kts
Gust
kts
15/08:30am 34.4 27.7 -10.6 5 18.9 NNE 19 24 10 13 1016.0 1014.0 0.0
15/08:00am 33.2 25.9 -11.5 5 18.3 NNE 22 30 12 16 1016.0 1014.0 0.0
15/07:30am 31.7 23.5 -12.5 5 17.6 NNE 26 33 14 18 1015.9 1013.9 0.0
15/07:00am 30.4 23.1 -11.2 6 16.7 NNE 22 33 12 18 1016.0 1014.0 0.0
15/06:30am 29.0 21.6 -12.2 6 16.1 NNE 22 30 12 16 1015.7 1013.7 0.0
15/06:00am 26.7 20.4 -10.2 8 14.5 NNE 17 26 9 14 1015.7 1013.7 0.0
15/05:30am 24.8 19.3 -10.2 9 13.5 NE 13 19 7 10 1015.6 1013.6 0.0
15/05:00am 24.4 18.6 -9.1 10 13.2 NE 15 20 8 11 1015.1 1013.2 0.0
15/04:30am 24.4 17.8 -9.1 10 13.2 E 19 22 10 12 1014.8 1012.9 0.0
15/04:00am 24.3 18.6 -8.0 11 13.0 ESE 15 24 8 13 1014.9 1013.0 0.0
15/03:30am 25.5 19.7 -8.3 10 13.6 NE 15 19 8 10 1014.3 1012.3 0.0
15/03:00am 25.4 20.5 -7.2 11 13.4 NE 11 15 6 8 1014.2 1012.2 0.0
15/02:30am 26.1 21.1 -7.9 10 13.9 NE 11 17 6 9 1014.3 1012.3 0.0
15/02:00am 26.9 20.8 -7.2 10 14.2 NE 17 24 9 13 1014.0 1012.0 0.0
15/01:30am 27.3 20.8 -8.3 9 14.6 NNE 19 24 10 13 1013.8 1011.8 0.0
15/01:00am 27.8 21.3 -7.9 9 14.8 ENE 19 28 10 15 1013.9 1011.9 0.0
15/12:30am 28.1 21.6 -7.7 9 15.0 NE 19 26 10 14 1014.1 1012.1 0.0
15/12:00am 27.0 21.7 -7.2 10 14.3 ENE 13 17 7 9 1014.4 1012.4 0.0
 
Date/Time
WST
Temp
°C
App
Temp
°C
Dew
Point
°C
Rel
Hum
%
Delta-T
°C
Wind Press
QNH
hPa
Press
MSL
hPa
Rain since
9am
mm
Dir  Spd
km/h
Gust
km/h
Spd
kts
Gust
kts
14/11:30pm 26.9 21.6 -7.2 10 14.2 ENE 13 19 7 10 1014.6 1012.6 0.0
14/11:00pm 28.2 23.0 -6.3 10 14.8 NE 13 17 7 9 1014.5 1012.5 0.0
14/10:30pm 28.1 23.7 -6.3 10 14.7 NE 9 15 5 8 1014.8 1012.9 0.0
14/10:00pm 28.6 23.8 -6.0 10 15.0 ENE 11 17 6 9 1015.1 1013.2 0.0
14/09:30pm 28.6 23.8 -6.0 10 15.0 NE 11 13 6 7 1015.1 1013.2 0.0
14/09:00pm 28.5 24.5 -6.0 10 14.9 NE 7 9 4 5 1015.0 1013.1 0.0
14/08:30pm 29.7 25.6 -6.5 9 15.7 ENE 7 11 4 6 1015.0 1013.1 0.0
14/08:00pm 31.1 26.6 -7.0 8 16.5 ENE 9 11 5 6 1015.0 1013.1 0.0
14/07:30pm 32.4 27.6 -6.0 8 17.1 ENE 11 15 6 8 1014.8 1012.9 0.0
14/07:00pm 33.2 27.9 -7.2 7 17.8 E 13 17 7 9 1014.7 1012.8 0.0
14/06:30pm 34.5 30.1 -6.3 7 18.4 ESE 9 17 5 9 1014.6 1012.6 0.0
14/06:00pm 35.4 29.7 -7.6 6 19.2 SE 15 24 8 13 1014.4 1012.4 0.0
14/05:30pm 35.9 31.0 -7.2 6 19.4 ESE 11 20 6 11 1014.1 1012.1 0.0
14/05:00pm 35.8 31.1 -5.3 7 19.1 NNE 11 20 6 11 1014.0 1012.0 0.0
14/04:30pm 36.5 33.5 -4.8 7 19.4 ESE 2 11 1 6 1014.1 1012.1 0.0
14/04:00pm 36.1 30.3 -5.1 7 19.2 NE 17 24 9 13 1014.2 1012.2 0.0
14/03:30pm 36.3 31.2 -5.0 7 19.3 NW 13 20 7 11 1014.5 1012.5 0.0
14/03:00pm 35.9 31.6 -5.2 7 19.1 SE 9 19 5 10 1014.9 1013.0 0.0
14/02:30pm 35.6 31.2 -5.5 7 19.0 E 9 15 5 8 1015.3 1013.4 0.0
14/02:00pm 36.2 32.3 -5.0 7 19.2 SW 7 19 4 10 1015.8 1013.8 0.0
14/01:30pm 36.5 31.4 -4.8 7 19.4 S 13 20 7 11 1016.3 1014.3 0.0
14/01:00pm 35.0 29.4 -5.9 7 18.6 ESE 15 22 8 12 1016.9 1014.9 0.0
14/12:30pm 34.7 30.3 -6.1 7 18.5 NE 9 15 5 8 1017.2 1015.3 0.0
14/12:00pm 34.4 30.1 -4.6 8 18.1 SE 9 20 5 11 1017.6 1015.7 0.0
14/11:30am 34.2 29.0 -6.5 7 18.3 NE 13 20 7 11 1017.8 1015.9 0.0
14/11:00am 33.8 28.2 -6.8 7 18.1 ENE 15 26 8 14 1018.4 1016.4 0.0
14/10:30am 34.1 29.3 -6.5 7 18.2 NE 11 20 6 11 1018.7 1016.7 0.0
14/10:00am 32.5 27.2 -7.7 7 17.4 ENE 13 22 7 12 1019.0 1017.0 0.0
14/09:30am 31.6 26.2 -8.3 7 17.0 NE 13 22 7 12 1019.4 1017.4 0.0
14/09:00am 30.5 25.0 -9.1 7 16.5 NE 13 22 7 12 1019.6 1017.7 0.0
14/08:30am 29.2 23.3 -10.1 7 15.9 NE 15 20 8 11 1019.8 1017.9 0.0
14/08:00am 28.3 21.4 -10.7 7 15.5 NE 20 26 11 14 1019.9 1018.0 0.0
14/07:30am 26.9 20.5 -11.8 7 14.9 NE 17 24 9 13 1019.9 1018.0 0.0
14/07:00am 24.9 18.1 -11.6 8 13.7 NE 19 24 10 13 1020.1 1018.2 0.0
14/06:30am 22.4 16.9 -9.5 11 12.2 ENE 13 19 7 10 1020.0 1018.1 0.0
14/06:00am 19.8 15.2 -7.5 15 10.5 ENE 9 13 5 7 1019.8 1017.9 0.0
14/05:30am 17.7 13.6 -6.9 18 9.4 ESE 7 11 4 6 1019.6 1017.7 0.0
14/05:00am 16.3 11.8 -6.7 20 8.7 ESE 9 9 5 5 1019.4 1017.4 0.0
14/04:30am 17.3 13.7 -7.2 18 9.3 SE 4 9 2 5 1019.3 1017.3 0.0
14/04:00am 18.3 13.4 -7.1 17 9.7 E 11 15 6 8 1018.6 1016.6 0.0
14/03:30am 18.2 13.7 -6.5 18 9.6 E 9 13 5 7 1018.9 1016.9 0.0
14/03:00am 18.8 14.4 -6.0 18 9.8 E 9 11 5 6 1018.9 1016.9 0.0
14/02:30am 19.0 14.1 -6.6 17 10.0 E 11 13 6 7 1018.9 1016.9 0.0
14/02:00am 19.7 14.9 -6.0 17 10.2 ESE 11 13 6 7 1018.9 1016.9 0.0
14/01:30am 20.2 15.4 -5.6 17 10.4 ESE 11 15 6 8 1018.9 1016.9 0.0
14/01:00am 20.6 16.3 -5.3 17 10.5 ESE 9 13 5 7 1019.0 1017.0 0.0
14/12:30am 20.9 17.0 -5.0 17 10.7 ENE 7 9 4 5 1019.3 1017.3 0.0
14/12:00am 21.7 17.3 -6.0 15 11.2 ESE 9 13 5 7 1019.4 1017.4 0.0
 
Date/Time
WST
Temp
°C
App
Temp
°C
Dew
Point
°C
Rel
Hum
%
Delta-T
°C
Wind Press
QNH
hPa
Press
MSL
hPa
Rain since
9am
mm
Dir  Spd
km/h
Gust
km/h
Spd
kts
Gust
kts
13/11:30pm 22.3 17.2 -5.6 15 11.5 ESE 13 15 7 8 1019.5 1017.5 0.0
13/11:00pm 23.3 18.5 -5.7 14 12.0 ESE 11 15 6 8 1019.7 1017.8 0.0
13/10:30pm 24.2 19.0 -5.9 13 12.6 ESE 13 17 7 9 1019.7 1017.8 0.0
13/10:00pm 24.9 19.7 -6.4 12 13.0 ESE 13 19 7 10 1019.8 1017.9 0.0
13/09:30pm 25.4 20.2 -6.0 12 13.2 ESE 13 17 7 9 1019.8 1017.9 0.0
13/09:00pm 26.3 20.7 -6.5 11 13.8 ESE 15 19 8 10 1019.7 1017.8 0.0
13/08:30pm 27.1 21.9 -5.9 11 14.1 SE 13 19 7 10 1019.6 1017.7 0.0
13/08:00pm 27.8 22.2 -6.6 10 14.6 ESE 15 19 8 10 1019.3 1017.3 0.0
13/07:30pm 28.6 23.4 -6.0 10 15.0 ESE 13 17 7 9 1019.3 1017.3 0.0
13/07:00pm 29.6 23.6 -6.6 9 15.6 ESE 17 20 9 11 1019.1 1017.1 0.0
13/06:30pm 30.4 24.1 -6.0 9 16.0 E 19 24 10 13 1018.8 1016.8 0.0
13/06:00pm 31.3 25.4 -5.3 9 16.4 ESE 17 20 9 11 1018.6 1016.6 0.0
13/05:30pm 31.9 26.1 -4.9 9 16.7 ESE 17 24 9 13 1018.3 1016.3 0.0
13/05:00pm 32.2 26.4 -4.6 9 16.8 E 17 26 9 14 1018.3 1016.3 0.0
13/04:30pm 32.8 26.1 -4.2 9 17.1 ESE 22 30 12 16 1018.3 1016.3 0.0
13/04:00pm 32.7 26.8 -5.8 8 17.3 E 17 30 9 16 1018.5 1016.5 0.0
13/03:30pm 32.5 26.2 -6.0 8 17.2 ESE 19 32 10 17 1018.6 1016.6 0.0
13/03:00pm 32.4 26.5 -6.0 8 17.1 E 17 28 9 15 1018.8 1016.8 0.0
13/02:30pm 32.1 27.4 -4.7 9 16.8 SE 11 26 6 14 1019.1 1017.1 0.0
13/02:00pm 32.3 27.0 -3.2 10 16.6 E 15 22 8 12 1019.5 1017.5 0.0
13/01:30pm 31.9 25.3 -3.5 10 16.4 ENE 22 35 12 19 1020.1 1018.2 0.0
13/01:00pm 30.8 24.7 -4.3 10 15.9 ENE 19 30 10 16 1020.7 1018.8 0.0
13/12:30pm 29.8 24.2 -2.6 12 15.0 ENE 17 28 9 15 1021.0 1019.1 0.0
13/12:00pm 29.2 24.1 -2.0 13 14.5 E 15 26 8 14 1021.6 1019.6 0.0
13/11:30am 28.0 22.3 -1.0 15 13.7 ESE 19 28 10 15 1022.1 1020.2 0.0
13/11:00am 27.7 21.9 -0.4 16 13.3 ENE 20 30 11 16 1022.6 1020.7 0.0
13/10:30am 26.7 20.1 -0.3 17 12.7 E 24 35 13 19 1023.0 1021.1 0.0
13/10:00am 25.3 18.9 0.8 20 11.6 E 24 32 13 17 1023.2 1021.3 0.0
13/09:30am 24.5 18.6 1.4 22 11.1 ENE 22 32 12 17 1023.4 1021.5 0.0
13/09:00am 23.2 17.6 1.5 24 10.3 ENE 20 30 11 16 1023.7 1021.8 0.0
13/08:30am 22.4 16.1 1.4 25 9.9 E 24 37 13 20 1023.8 1021.9 0.0
13/08:00am 21.2 14.8 1.0 26 9.3 E 24 33 13 18 1024.0 1022.0 0.0
13/07:30am 20.3 13.9 1.2 28 8.8 E 24 30 13 16 1024.1 1022.1 0.0
13/07:00am 18.9 12.9 1.0 30 8.1 E 22 30 12 16 1024.0 1022.0 0.0
13/06:30am 17.7 12.3 1.2 33 7.5 ESE 19 28 10 15 1023.7 1021.8 0.0
13/06:00am 16.4 11.5 1.7 37 6.6 ESE 17 20 9 11 1023.5 1021.6 0.0
13/05:30am 15.2 10.7 2.1 41 5.9 ESE 15 20 8 11 1023.3 1021.4 0.0
13/05:00am 14.8 10.0 2.4 43 5.6 SE 17 24 9 13 1023.2 1021.3 0.0
13/04:30am 14.5 11.2 2.4 44 5.5 ESE 9 13 5 7 1023.1 1021.2 0.0
13/04:00am 15.2 11.9 2.7 43 5.7 SE 9 15 5 8 1023.0 1021.1 0.0
13/03:30am 15.6 11.2 2.7 42 5.9 ESE 15 17 8 9 1022.8 1020.9 0.0
13/03:00am 15.4 12.6 3.2 44 5.6 SE 7 11 4 6 1022.9 1021.0 0.0
13/02:30am 15.6 12.3 2.7 42 5.9 SE 9 11 5 6 1022.8 1020.9 0.0
13/02:00am 15.9 12.8 3.4 43 5.8 ESE 9 13 5 7 1022.7 1020.8 0.0
13/01:30am 16.1 13.4 2.5 40 6.2 SE 6 7 3 4 1022.9 1021.0 0.0
13/01:00am 17.1 15.2 2.7 38 6.7 SSE 2 6 1 3 1022.9 1021.0 0.0
13/12:30am 18.1 14.5 2.8 36 7.2 ESE 11 15 6 8 1022.8 1020.9 0.0
13/12:00am 18.5 14.9 2.8 35 7.4 ESE 11 15 6 8 1023.0 1021.1 0.0
 
Date/Time
WST
Temp
°C
App
Temp
°C
Dew
Point
°C
Rel
Hum
%
Delta-T
°C
Wind Press
QNH
hPa
Press
MSL
hPa
Rain since
9am
mm
Dir  Spd
km/h
Gust
km/h
Spd
kts
Gust
kts
12/11:30pm 19.1 14.7 2.9 34 7.7 E 15 19 8 10 1023.0 1021.1 0.0
12/11:00pm 19.6 14.9 2.9 33 7.9 E 17 22 9 12 1023.3 1021.4 0.0
12/10:30pm 19.8 15.5 3.5 34 7.9 ENE 15 20 8 11 1023.3 1021.4 0.0
12/10:00pm 19.9 15.6 3.2 33 8.0 ENE 15 19 8 10 1023.7 1021.8 0.0
12/09:30pm 20.3 16.0 3.5 33 8.1 E 15 20 8 11 1023.8 1021.9 0.0
12/09:00pm 20.6 15.5 3.3 32 8.3 E 19 26 10 14 1023.3 1021.4 0.0
12/08:30pm 20.7 14.7 3.4 32 8.4 E 24 35 13 19 1022.0 1020.1 0.0
12/08:00pm 21.1 14.6 2.9 30 8.7 E 26 35 14 19 1021.8 1019.8 0.0
12/07:30pm 21.4 16.6 2.6 29 9.0 E 17 22 9 12 1022.5 1020.6 0.0
12/07:00pm 21.6 17.6 2.8 29 9.0 ESE 13 17 7 9 1022.7 1020.8 0.0
12/06:30pm 22.0 16.8 2.7 28 9.3 ESE 19 26 10 14 1022.3 1020.4 0.0
12/06:00pm 22.3 16.5 2.4 27 9.5 SE 22 35 12 19 1022.0 1020.1 0.0
12/05:30pm 22.6 17.4 2.7 27 9.6 ESE 19 28 10 15 1021.8 1019.8 0.0
12/05:00pm 22.8 17.5 2.8 27 9.7 ESE 20 26 11 14 1021.7 1019.7 0.0
12/04:30pm 22.5 16.8 3.1 28 9.5 ESE 22 32 12 17 1021.9 1019.9 0.0
12/04:00pm 22.7 17.4 2.8 27 9.6 E 20 28 11 15 1022.2 1020.3 0.0
12/03:30pm 22.5 16.5 3.1 28 9.5 SE 24 35 13 19 1021.9 1019.9 0.0
12/03:00pm 21.5 15.5 3.2 30 8.8 ESE 24 33 13 18 1021.9 1019.9 0.0
12/02:30pm 21.4 15.4 3.1 30 8.9 SE 24 41 13 22 1022.0 1020.1 0.0
12/02:00pm 20.5 14.5 3.3 32 8.3 SE 24 39 13 21 1022.4 1020.5 0.0
12/01:30pm 19.8 14.2 3.5 34 7.9 SE 22 32 12 17 1022.5 1020.6 0.0
12/01:00pm 19.0 12.3 3.6 36 7.4 E 28 39 15 21 1022.4 1020.5 0.0
12/12:30pm 18.8 12.9 3.8 37 7.2 ESE 24 35 13 19 1022.7 1020.8 0.0
12/12:00pm 18.5 13.3 3.6 37 7.1 ESE 20 32 11 17 1023.1 1021.2 0.0
12/11:30am 18.1 12.5 3.6 38 6.9 E 22 30 12 16 1023.3 1021.4 0.0
12/11:00am 18.0 12.1 3.9 39 6.7 E 24 35 13 19 1023.5 1021.6 0.0
12/10:30am 17.2 11.7 3.8 41 6.4 ESE 22 32 12 17 1024.0 1022.0 0.0
12/10:00am 17.0 11.5 4.0 42 6.2 E 22 28 12 15 1024.2 1022.2 0.0
12/09:30am 16.7 11.7 3.7 42 6.1 ESE 19 30 10 16 1024.8 1022.9 0.0
12/09:00am 16.6 11.6 3.7 42 6.1 SE 19 26 10 14 1024.8 1022.9 0.0

Other formats

Comma delimited format used in spreadsheet applications
http://www.bom.gov.au/fwo/IDW60801/IDW60801.94450.axf

JavaScript Object Notation format (JSON) in row-major order
http://www.bom.gov.au/fwo/IDW60801/IDW60801.94450.json

Data quality

Most of these data are generated automatically and are frequently updated. Quality checks on data are not normally performed. It is possible for incorrect values to appear. Refer to information at About Latest Weather Observations and please check the disclaimer before using these data.